sensor_id;sensor_type;location;lat;lon;timestamp;temperature;humidity
69747;DHT22;57018;50.278;19.134;2023-10-08T00:02:06;14.80;99.90
69747;DHT22;57018;50.278;19.134;2023-10-08T00:04:37;14.70;99.90
69747;DHT22;57018;50.278;19.134;2023-10-08T00:07:07;14.50;99.90
69747;DHT22;57018;50.278;19.134;2023-10-08T00:09:37;14.60;99.90
69747;DHT22;57018;50.278;19.134;2023-10-08T00:12:07;14.60;99.90
69747;DHT22;57018;50.278;19.134;2023-10-08T00:14:38;14.50;99.90
69747;DHT22;57018;50.278;19.134;2023-10-08T00:17:13;14.50;99.90
69747;DHT22;57018;50.278;19.134;2023-10-08T00:19:43;14.50;99.90
69747;DHT22;57018;50.278;19.134;2023-10-08T00:22:13;14.60;99.90
69747;DHT22;57018;50.278;19.134;2023-10-08T00:24:46;14.50;99.90
69747;DHT22;57018;50.278;19.134;2023-10-08T00:27:23;14.50;99.90
69747;DHT22;57018;50.278;19.134;2023-10-08T00:29:53;14.50;99.90
69747;DHT22;57018;50.278;19.134;2023-10-08T00:32:24;14.40;99.90
69747;DHT22;57018;50.278;19.134;2023-10-08T00:34:54;14.40;99.90
69747;DHT22;57018;50.278;19.134;2023-10-08T00:37:24;14.40;99.90
69747;DHT22;57018;50.278;19.134;2023-10-08T00:39:55;14.30;99.90
69747;DHT22;57018;50.278;19.134;2023-10-08T00:42:25;14.30;99.90
69747;DHT22;57018;50.278;19.134;2023-10-08T00:44:57;14.20;99.90
69747;DHT22;57018;50.278;19.134;2023-10-08T00:47:29;14.30;99.90
69747;DHT22;57018;50.278;19.134;2023-10-08T00:50:09;14.20;99.90
69747;DHT22;57018;50.278;19.134;2023-10-08T00:52:39;14.20;99.90
69747;DHT22;57018;50.278;19.134;2023-10-08T00:55:13;14.10;99.90
69747;DHT22;57018;50.278;19.134;2023-10-08T00:57:54;14.10;99.90
69747;DHT22;57018;50.278;19.134;2023-10-08T01:00:27;14.20;99.90
69747;DHT22;57018;50.278;19.134;2023-10-08T01:03:07;14.10;99.90
69747;DHT22;57018;50.278;19.134;2023-10-08T01:05:43;13.90;99.90
69747;DHT22;57018;50.278;19.134;2023-10-08T01:08:16;13.40;99.90
69747;DHT22;57018;50.278;19.134;2023-10-08T01:10:51;13.30;99.90
69747;DHT22;57018;50.278;19.134;2023-10-08T01:13:31;12.90;99.90
69747;DHT22;57018;50.278;19.134;2023-10-08T01:16:11;12.70;99.90
69747;DHT22;57018;50.278;19.134;2023-10-08T01:18:42;12.60;99.90
69747;DHT22;57018;50.278;19.134;2023-10-08T01:21:20;12.60;99.90
69747;DHT22;57018;50.278;19.134;2023-10-08T01:24:03;12.50;99.90
69747;DHT22;57018;50.278;19.134;2023-10-08T01:26:35;12.20;99.90
69747;DHT22;57018;50.278;19.134;2023-10-08T01:29:10;12.20;99.90
69747;DHT22;57018;50.278;19.134;2023-10-08T01:31:47;11.90;99.90
69747;DHT22;57018;50.278;19.134;2023-10-08T01:34:19;11.90;99.90
69747;DHT22;57018;50.278;19.134;2023-10-08T01:36:55;11.40;99.90
69747;DHT22;57018;50.278;19.134;2023-10-08T01:39:28;11.30;99.90
69747;DHT22;57018;50.278;19.134;2023-10-08T01:42:00;11.10;99.90
69747;DHT22;57018;50.278;19.134;2023-10-08T01:44:30;11.10;99.90
69747;DHT22;57018;50.278;19.134;2023-10-08T01:47:02;10.90;99.90
69747;DHT22;57018;50.278;19.134;2023-10-08T01:49:33;11.00;99.90
69747;DHT22;57018;50.278;19.134;2023-10-08T01:52:07;11.00;99.90
69747;DHT22;57018;50.278;19.134;2023-10-08T01:54:46;11.00;99.90
69747;DHT22;57018;50.278;19.134;2023-10-08T01:57:16;10.90;99.90
69747;DHT22;57018;50.278;19.134;2023-10-08T01:59:46;10.80;99.90
69747;DHT22;57018;50.278;19.134;2023-10-08T02:02:17;10.80;99.90
69747;DHT22;57018;50.278;19.134;2023-10-08T02:04:47;10.80;99.90
69747;DHT22;57018;50.278;19.134;2023-10-08T02:07:16;10.80;99.90
69747;DHT22;57018;50.278;19.134;2023-10-08T02:09:46;10.90;99.90
69747;DHT22;57018;50.278;19.134;2023-10-08T02:12:16;10.60;99.90
69747;DHT22;57018;50.278;19.134;2023-10-08T02:14:46;10.70;99.90
69747;DHT22;57018;50.278;19.134;2023-10-08T02:17:17;10.70;99.90
69747;DHT22;57018;50.278;19.134;2023-10-08T02:19:48;10.70;99.90
69747;DHT22;57018;50.278;19.134;2023-10-08T02:22:17;10.70;99.90
69747;DHT22;57018;50.278;19.134;2023-10-08T02:24:48;10.70;99.90
69747;DHT22;57018;50.278;19.134;2023-10-08T02:27:19;10.70;99.90
69747;DHT22;57018;50.278;19.134;2023-10-08T02:29:49;10.60;99.90
69747;DHT22;57018;50.278;19.134;2023-10-08T02:32:18;10.60;99.90
69747;DHT22;57018;50.278;19.134;2023-10-08T02:34:51;10.50;99.90
69747;DHT22;57018;50.278;19.134;2023-10-08T02:37:20;10.40;99.90
69747;DHT22;57018;50.278;19.134;2023-10-08T02:39:50;10.40;99.90
69747;DHT22;57018;50.278;19.134;2023-10-08T02:42:20;10.60;99.90
69747;DHT22;57018;50.278;19.134;2023-10-08T02:44:50;10.60;99.90
69747;DHT22;57018;50.278;19.134;2023-10-08T02:47:20;10.50;99.90
69747;DHT22;57018;50.278;19.134;2023-10-08T02:49:50;10.50;99.90
69747;DHT22;57018;50.278;19.134;2023-10-08T02:52:21;10.40;99.90
69747;DHT22;57018;50.278;19.134;2023-10-08T02:54:51;10.40;99.90
69747;DHT22;57018;50.278;19.134;2023-10-08T02:57:21;10.40;99.90
69747;DHT22;57018;50.278;19.134;2023-10-08T02:59:52;10.40;99.90
69747;DHT22;57018;50.278;19.134;2023-10-08T03:02:22;10.40;99.90
69747;DHT22;57018;50.278;19.134;2023-10-08T03:04:54;10.30;99.90
69747;DHT22;57018;50.278;19.134;2023-10-08T03:07:24;10.30;99.90
69747;DHT22;57018;50.278;19.134;2023-10-08T03:10:01;10.30;99.90
69747;DHT22;57018;50.278;19.134;2023-10-08T03:12:35;10.10;99.90
69747;DHT22;57018;50.278;19.134;2023-10-08T03:15:06;10.10;99.90
69747;DHT22;57018;50.278;19.134;2023-10-08T03:17:43;10.10;99.90
69747;DHT22;57018;50.278;19.134;2023-10-08T03:20:20;10.20;99.90
69747;DHT22;57018;50.278;19.134;2023-10-08T03:23:07;10.00;99.90
69747;DHT22;57018;50.278;19.134;2023-10-08T03:25:41;10.00;99.90
69747;DHT22;57018;50.278;19.134;2023-10-08T03:28:11;10.20;99.90
69747;DHT22;57018;50.278;19.134;2023-10-08T03:30:45;10.20;99.90
69747;DHT22;57018;50.278;19.134;2023-10-08T03:33:19;10.20;99.90
69747;DHT22;57018;50.278;19.134;2023-10-08T03:35:52;10.30;99.90
69747;DHT22;57018;50.278;19.134;2023-10-08T03:38:23;10.10;99.90
69747;DHT22;57018;50.278;19.134;2023-10-08T03:41:08;10.00;99.90
69747;DHT22;57018;50.278;19.134;2023-10-08T03:43:44;9.90;99.90
69747;DHT22;57018;50.278;19.134;2023-10-08T03:46:22;10.00;99.90
69747;DHT22;57018;50.278;19.134;2023-10-08T03:48:54;9.70;99.90
69747;DHT22;57018;50.278;19.134;2023-10-08T03:51:26;9.80;99.90
69747;DHT22;57018;50.278;19.134;2023-10-08T03:53:57;9.70;99.90
69747;DHT22;57018;50.278;19.134;2023-10-08T03:56:28;9.90;99.90
69747;DHT22;57018;50.278;19.134;2023-10-08T03:59:00;9.70;99.90
69747;DHT22;57018;50.278;19.134;2023-10-08T04:01:32;9.80;99.90
69747;DHT22;57018;50.278;19.134;2023-10-08T04:04:03;9.80;99.90
69747;DHT22;57018;50.278;19.134;2023-10-08T04:06:33;9.90;99.90
69747;DHT22;57018;50.278;19.134;2023-10-08T04:09:07;9.80;99.90
69747;DHT22;57018;50.278;19.134;2023-10-08T04:11:53;9.80;99.90
69747;DHT22;57018;50.278;19.134;2023-10-08T04:14:25;9.80;99.90
69747;DHT22;57018;50.278;19.134;2023-10-08T04:16:56;9.80;99.90
69747;DHT22;57018;50.278;19.134;2023-10-08T04:19:27;9.80;99.90
69747;DHT22;57018;50.278;19.134;2023-10-08T04:21:57;9.80;99.90
69747;DHT22;57018;50.278;19.134;2023-10-08T04:24:29;9.70;99.90
69747;DHT22;57018;50.278;19.134;2023-10-08T04:27:03;9.80;99.90
69747;DHT22;57018;50.278;19.134;2023-10-08T04:29:34;9.80;99.90
69747;DHT22;57018;50.278;19.134;2023-10-08T04:32:06;9.60;99.90
69747;DHT22;57018;50.278;19.134;2023-10-08T04:34:44;9.70;99.90
69747;DHT22;57018;50.278;19.134;2023-10-08T04:37:15;9.80;99.90
69747;DHT22;57018;50.278;19.134;2023-10-08T04:39:48;9.60;99.90
69747;DHT22;57018;50.278;19.134;2023-10-08T04:42:27;9.70;99.90
69747;DHT22;57018;50.278;19.134;2023-10-08T04:44:57;9.60;99.90
69747;DHT22;57018;50.278;19.134;2023-10-08T04:47:27;9.70;99.90
69747;DHT22;57018;50.278;19.134;2023-10-08T04:50:04;9.70;99.90
69747;DHT22;57018;50.278;19.134;2023-10-08T04:52:34;9.60;99.90
69747;DHT22;57018;50.278;19.134;2023-10-08T04:55:16;9.60;99.90
69747;DHT22;57018;50.278;19.134;2023-10-08T04:57:48;9.70;99.90
69747;DHT22;57018;50.278;19.134;2023-10-08T05:00:19;9.60;99.90
69747;DHT22;57018;50.278;19.134;2023-10-08T05:03:09;9.60;99.90
69747;DHT22;57018;50.278;19.134;2023-10-08T05:05:43;9.60;99.90
69747;DHT22;57018;50.278;19.134;2023-10-08T05:08:36;9.60;99.90
69747;DHT22;57018;50.278;19.134;2023-10-08T05:11:27;9.70;99.90
69747;DHT22;57018;50.278;19.134;2023-10-08T05:14:15;9.60;99.90
69747;DHT22;57018;50.278;19.134;2023-10-08T05:16:57;9.70;99.90
69747;DHT22;57018;50.278;19.134;2023-10-08T05:19:32;9.60;99.90
69747;DHT22;57018;50.278;19.134;2023-10-08T05:22:25;9.70;99.90
69747;DHT22;57018;50.278;19.134;2023-10-08T05:25:13;9.60;99.90
69747;DHT22;57018;50.278;19.134;2023-10-08T05:28:04;9.70;99.90
69747;DHT22;57018;50.278;19.134;2023-10-08T05:30:39;9.70;99.90
69747;DHT22;57018;50.278;19.134;2023-10-08T05:33:22;9.60;99.90
69747;DHT22;57018;50.278;19.134;2023-10-08T05:35:56;9.80;99.90
69747;DHT22;57018;50.278;19.134;2023-10-08T05:38:38;9.80;99.90
69747;DHT22;57018;50.278;19.134;2023-10-08T05:41:17;9.70;99.90
69747;DHT22;57018;50.278;19.134;2023-10-08T05:43:59;9.80;99.90
69747;DHT22;57018;50.278;19.134;2023-10-08T05:46:52;9.80;99.90
69747;DHT22;57018;50.278;19.134;2023-10-08T05:49:52;9.90;99.90
69747;DHT22;57018;50.278;19.134;2023-10-08T05:52:44;9.80;99.90
69747;DHT22;57018;50.278;19.134;2023-10-08T05:55:33;9.80;99.90
69747;DHT22;57018;50.278;19.134;2023-10-08T05:58:15;9.90;99.90
69747;DHT22;57018;50.278;19.134;2023-10-08T06:01:04;9.80;99.90
69747;DHT22;57018;50.278;19.134;2023-10-08T06:03:55;9.80;99.90
69747;DHT22;57018;50.278;19.134;2023-10-08T06:06:40;9.70;99.90
69747;DHT22;57018;50.278;19.134;2023-10-08T06:09:16;9.80;99.90
69747;DHT22;57018;50.278;19.134;2023-10-08T06:11:51;10.00;99.90
69747;DHT22;57018;50.278;19.134;2023-10-08T06:14:39;10.00;99.90
69747;DHT22;57018;50.278;19.134;2023-10-08T06:17:36;10.00;99.90
69747;DHT22;57018;50.278;19.134;2023-10-08T06:20:24;10.20;99.90
69747;DHT22;57018;50.278;19.134;2023-10-08T06:22:55;10.10;99.90
69747;DHT22;57018;50.278;19.134;2023-10-08T06:25:31;10.10;99.90
69747;DHT22;57018;50.278;19.134;2023-10-08T06:28:01;10.10;99.90
69747;DHT22;57018;50.278;19.134;2023-10-08T06:30:32;10.30;99.90
69747;DHT22;57018;50.278;19.134;2023-10-08T06:33:03;10.20;99.90
69747;DHT22;57018;50.278;19.134;2023-10-08T06:35:33;10.40;99.90
69747;DHT22;57018;50.278;19.134;2023-10-08T06:38:04;10.50;99.90
69747;DHT22;57018;50.278;19.134;2023-10-08T06:40:38;10.50;99.90
69747;DHT22;57018;50.278;19.134;2023-10-08T06:43:11;10.70;99.90
69747;DHT22;57018;50.278;19.134;2023-10-08T06:45:45;10.80;99.90
69747;DHT22;57018;50.278;19.134;2023-10-08T06:48:16;10.90;99.90
69747;DHT22;57018;50.278;19.134;2023-10-08T06:50:51;11.00;99.90
69747;DHT22;57018;50.278;19.134;2023-10-08T06:53:26;11.00;99.90
69747;DHT22;57018;50.278;19.134;2023-10-08T06:55:58;11.00;99.90
69747;DHT22;57018;50.278;19.134;2023-10-08T06:58:32;10.90;99.90
69747;DHT22;57018;50.278;19.134;2023-10-08T07:01:02;11.00;99.90
69747;DHT22;57018;50.278;19.134;2023-10-08T07:03:37;11.10;99.90
69747;DHT22;57018;50.278;19.134;2023-10-08T07:06:07;11.30;99.90
69747;DHT22;57018;50.278;19.134;2023-10-08T07:08:54;11.30;99.90
69747;DHT22;57018;50.278;19.134;2023-10-08T07:11:24;11.20;99.90
69747;DHT22;57018;50.278;19.134;2023-10-08T07:13:55;11.10;99.90
69747;DHT22;57018;50.278;19.134;2023-10-08T07:16:26;11.10;99.90
69747;DHT22;57018;50.278;19.134;2023-10-08T07:18:56;11.00;99.90
69747;DHT22;57018;50.278;19.134;2023-10-08T07:21:31;11.00;99.90
69747;DHT22;57018;50.278;19.134;2023-10-08T07:24:13;10.90;99.90
69747;DHT22;57018;50.278;19.134;2023-10-08T07:26:46;10.90;99.90
69747;DHT22;57018;50.278;19.134;2023-10-08T07:29:16;10.90;99.90
69747;DHT22;57018;50.278;19.134;2023-10-08T07:31:48;10.90;99.90
69747;DHT22;57018;50.278;19.134;2023-10-08T07:34:21;10.90;99.90
69747;DHT22;57018;50.278;19.134;2023-10-08T07:36:56;11.10;99.90
69747;DHT22;57018;50.278;19.134;2023-10-08T07:39:25;11.10;99.90
69747;DHT22;57018;50.278;19.134;2023-10-08T07:42:03;11.00;99.90
69747;DHT22;57018;50.278;19.134;2023-10-08T07:44:36;11.00;99.90
69747;DHT22;57018;50.278;19.134;2023-10-08T07:47:07;11.00;99.90
69747;DHT22;57018;50.278;19.134;2023-10-08T07:49:41;11.00;99.90
69747;DHT22;57018;50.278;19.134;2023-10-08T07:52:13;11.10;99.90
69747;DHT22;57018;50.278;19.134;2023-10-08T07:54:44;11.20;99.90
69747;DHT22;57018;50.278;19.134;2023-10-08T07:57:13;11.20;99.90
69747;DHT22;57018;50.278;19.134;2023-10-08T07:59:47;11.10;99.90
69747;DHT22;57018;50.278;19.134;2023-10-08T08:02:23;11.00;99.90
69747;DHT22;57018;50.278;19.134;2023-10-08T08:04:53;11.00;99.90
69747;DHT22;57018;50.278;19.134;2023-10-08T08:07:23;11.00;99.90
69747;DHT22;57018;50.278;19.134;2023-10-08T08:09:54;11.20;99.90
69747;DHT22;57018;50.278;19.134;2023-10-08T08:12:28;11.30;99.90
69747;DHT22;57018;50.278;19.134;2023-10-08T08:15:01;11.40;99.90
69747;DHT22;57018;50.278;19.134;2023-10-08T08:17:43;11.40;99.90
69747;DHT22;57018;50.278;19.134;2023-10-08T08:20:16;11.30;99.90
69747;DHT22;57018;50.278;19.134;2023-10-08T08:22:59;11.30;99.90
69747;DHT22;57018;50.278;19.134;2023-10-08T08:25:38;11.30;99.90
69747;DHT22;57018;50.278;19.134;2023-10-08T08:28:14;11.30;99.90
69747;DHT22;57018;50.278;19.134;2023-10-08T08:30:49;11.40;99.90
69747;DHT22;57018;50.278;19.134;2023-10-08T08:33:21;11.60;99.90
69747;DHT22;57018;50.278;19.134;2023-10-08T08:36:01;11.50;99.90
69747;DHT22;57018;50.278;19.134;2023-10-08T08:38:34;11.80;99.90
69747;DHT22;57018;50.278;19.134;2023-10-08T08:41:05;12.00;99.90
69747;DHT22;57018;50.278;19.134;2023-10-08T08:43:37;12.20;99.90
69747;DHT22;57018;50.278;19.134;2023-10-08T08:46:12;12.20;99.90
69747;DHT22;57018;50.278;19.134;2023-10-08T08:48:43;12.00;99.90
69747;DHT22;57018;50.278;19.134;2023-10-08T08:51:16;11.80;99.90
69747;DHT22;57018;50.278;19.134;2023-10-08T08:53:46;11.80;99.90
69747;DHT22;57018;50.278;19.134;2023-10-08T08:56:18;11.70;99.90
69747;DHT22;57018;50.278;19.134;2023-10-08T08:58:48;11.80;99.90
69747;DHT22;57018;50.278;19.134;2023-10-08T09:01:19;11.90;99.90
69747;DHT22;57018;50.278;19.134;2023-10-08T09:03:49;11.80;99.90
69747;DHT22;57018;50.278;19.134;2023-10-08T09:06:19;11.90;99.90
69747;DHT22;57018;50.278;19.134;2023-10-08T09:08:49;11.80;99.90
69747;DHT22;57018;50.278;19.134;2023-10-08T09:11:19;11.80;99.90
69747;DHT22;57018;50.278;19.134;2023-10-08T09:13:49;11.80;99.90
69747;DHT22;57018;50.278;19.134;2023-10-08T09:16:19;11.90;99.90
69747;DHT22;57018;50.278;19.134;2023-10-08T09:18:49;12.10;99.90
69747;DHT22;57018;50.278;19.134;2023-10-08T09:21:21;12.30;99.90
69747;DHT22;57018;50.278;19.134;2023-10-08T09:23:53;12.40;99.90
69747;DHT22;57018;50.278;19.134;2023-10-08T09:26:25;12.20;99.80
69747;DHT22;57018;50.278;19.134;2023-10-08T09:28:57;11.90;85.60
69747;DHT22;57018;50.278;19.134;2023-10-08T09:31:30;11.90;82.40
69747;DHT22;57018;50.278;19.134;2023-10-08T09:34:04;11.60;82.70
69747;DHT22;57018;50.278;19.134;2023-10-08T09:36:34;11.50;84.40
69747;DHT22;57018;50.278;19.134;2023-10-08T09:39:05;11.60;88.00
69747;DHT22;57018;50.278;19.134;2023-10-08T09:41:44;11.80;87.10
69747;DHT22;57018;50.278;19.134;2023-10-08T09:44:16;11.80;83.30
69747;DHT22;57018;50.278;19.134;2023-10-08T09:46:53;11.70;87.00
69747;DHT22;57018;50.278;19.134;2023-10-08T09:49:31;11.80;78.00
69747;DHT22;57018;50.278;19.134;2023-10-08T09:52:03;11.80;77.20
69747;DHT22;57018;50.278;19.134;2023-10-08T09:54:42;12.00;78.80
69747;DHT22;57018;50.278;19.134;2023-10-08T09:57:12;12.10;78.80
69747;DHT22;57018;50.278;19.134;2023-10-08T09:59:43;12.20;81.40
69747;DHT22;57018;50.278;19.134;2023-10-08T10:02:14;12.30;77.10
69747;DHT22;57018;50.278;19.134;2023-10-08T10:04:45;12.40;73.70
69747;DHT22;57018;50.278;19.134;2023-10-08T10:07:15;12.30;74.70
69747;DHT22;57018;50.278;19.134;2023-10-08T10:09:46;12.40;77.70
69747;DHT22;57018;50.278;19.134;2023-10-08T10:12:26;12.40;77.60
69747;DHT22;57018;50.278;19.134;2023-10-08T10:14:57;12.30;67.60
69747;DHT22;57018;50.278;19.134;2023-10-08T10:17:29;12.20;70.70
69747;DHT22;57018;50.278;19.134;2023-10-08T10:20:01;12.20;66.90
69747;DHT22;57018;50.278;19.134;2023-10-08T10:22:35;12.20;66.30
69747;DHT22;57018;50.278;19.134;2023-10-08T10:25:06;12.10;68.20
69747;DHT22;57018;50.278;19.134;2023-10-08T10:27:44;12.10;70.90
69747;DHT22;57018;50.278;19.134;2023-10-08T10:30:36;12.00;68.00
69747;DHT22;57018;50.278;19.134;2023-10-08T10:33:10;11.90;64.40
69747;DHT22;57018;50.278;19.134;2023-10-08T10:35:39;11.90;63.70
69747;DHT22;57018;50.278;19.134;2023-10-08T10:38:12;12.00;64.00
69747;DHT22;57018;50.278;19.134;2023-10-08T10:40:42;12.00;62.60
69747;DHT22;57018;50.278;19.134;2023-10-08T10:43:13;12.00;63.00
69747;DHT22;57018;50.278;19.134;2023-10-08T10:45:44;12.00;63.90
69747;DHT22;57018;50.278;19.134;2023-10-08T10:48:16;11.90;63.40
69747;DHT22;57018;50.278;19.134;2023-10-08T10:50:53;11.90;63.90
69747;DHT22;57018;50.278;19.134;2023-10-08T10:53:45;12.00;64.70
69747;DHT22;57018;50.278;19.134;2023-10-08T10:56:26;12.00;62.00
69747;DHT22;57018;50.278;19.134;2023-10-08T10:59:02;12.00;62.10
69747;DHT22;57018;50.278;19.134;2023-10-08T11:01:46;12.10;64.10
69747;DHT22;57018;50.278;19.134;2023-10-08T11:04:21;12.10;67.00
69747;DHT22;57018;50.278;19.134;2023-10-08T11:06:57;12.10;70.20
69747;DHT22;57018;50.278;19.134;2023-10-08T11:09:29;12.00;70.10
69747;DHT22;57018;50.278;19.134;2023-10-08T11:12:08;12.10;66.20
69747;DHT22;57018;50.278;19.134;2023-10-08T11:14:41;12.10;65.50
69747;DHT22;57018;50.278;19.134;2023-10-08T11:17:15;11.90;62.50
69747;DHT22;57018;50.278;19.134;2023-10-08T11:19:45;11.90;64.20
69747;DHT22;57018;50.278;19.134;2023-10-08T11:22:17;11.80;62.80
69747;DHT22;57018;50.278;19.134;2023-10-08T11:24:51;11.80;63.00
69747;DHT22;57018;50.278;19.134;2023-10-08T11:27:24;11.80;60.10
69747;DHT22;57018;50.278;19.134;2023-10-08T11:30:02;11.80;58.90
69747;DHT22;57018;50.278;19.134;2023-10-08T11:32:40;11.80;59.40
69747;DHT22;57018;50.278;19.134;2023-10-08T11:35:16;11.90;61.80
69747;DHT22;57018;50.278;19.134;2023-10-08T11:37:49;12.00;61.90
69747;DHT22;57018;50.278;19.134;2023-10-08T11:40:24;12.00;58.70
69747;DHT22;57018;50.278;19.134;2023-10-08T11:42:58;12.10;57.90
69747;DHT22;57018;50.278;19.134;2023-10-08T11:45:31;12.10;59.10
69747;DHT22;57018;50.278;19.134;2023-10-08T11:48:08;12.10;59.40
69747;DHT22;57018;50.278;19.134;2023-10-08T11:50:41;12.10;59.80
69747;DHT22;57018;50.278;19.134;2023-10-08T11:53:12;12.10;59.20
69747;DHT22;57018;50.278;19.134;2023-10-08T11:55:41;12.10;60.10
69747;DHT22;57018;50.278;19.134;2023-10-08T11:58:13;12.20;57.10
69747;DHT22;57018;50.278;19.134;2023-10-08T12:00:46;12.20;54.80
69747;DHT22;57018;50.278;19.134;2023-10-08T12:03:20;12.30;55.20
69747;DHT22;57018;50.278;19.134;2023-10-08T12:05:54;12.20;56.20
69747;DHT22;57018;50.278;19.134;2023-10-08T12:08:27;12.20;56.10
69747;DHT22;57018;50.278;19.134;2023-10-08T12:10:58;12.20;53.30
69747;DHT22;57018;50.278;19.134;2023-10-08T12:13:28;12.10;53.80
69747;DHT22;57018;50.278;19.134;2023-10-08T12:15:59;12.00;53.50
69747;DHT22;57018;50.278;19.134;2023-10-08T12:18:36;11.90;55.60
69747;DHT22;57018;50.278;19.134;2023-10-08T12:21:08;11.90;56.50
69747;DHT22;57018;50.278;19.134;2023-10-08T12:23:39;11.90;54.70
69747;DHT22;57018;50.278;19.134;2023-10-08T12:26:09;11.80;54.20
69747;DHT22;57018;50.278;19.134;2023-10-08T12:28:44;11.90;55.60
69747;DHT22;57018;50.278;19.134;2023-10-08T12:31:15;11.80;54.90
69747;DHT22;57018;50.278;19.134;2023-10-08T12:33:45;11.80;54.20
69747;DHT22;57018;50.278;19.134;2023-10-08T12:36:15;11.90;54.60
69747;DHT22;57018;50.278;19.134;2023-10-08T12:38:45;11.90;56.60
69747;DHT22;57018;50.278;19.134;2023-10-08T12:41:16;11.90;56.30
69747;DHT22;57018;50.278;19.134;2023-10-08T12:43:47;12.00;57.60
69747;DHT22;57018;50.278;19.134;2023-10-08T12:46:21;12.10;57.70
69747;DHT22;57018;50.278;19.134;2023-10-08T12:48:54;12.00;57.30
69747;DHT22;57018;50.278;19.134;2023-10-08T12:51:25;12.00;55.30
69747;DHT22;57018;50.278;19.134;2023-10-08T12:53:55;11.90;55.10
69747;DHT22;57018;50.278;19.134;2023-10-08T12:56:32;11.70;53.70
69747;DHT22;57018;50.278;19.134;2023-10-08T12:59:06;11.50;53.00
69747;DHT22;57018;50.278;19.134;2023-10-08T13:01:36;11.30;54.10
69747;DHT22;57018;50.278;19.134;2023-10-08T13:04:09;11.30;54.00
69747;DHT22;57018;50.278;19.134;2023-10-08T13:06:44;11.20;54.60
69747;DHT22;57018;50.278;19.134;2023-10-08T13:09:14;11.20;55.50
69747;DHT22;57018;50.278;19.134;2023-10-08T13:11:44;11.20;56.10
69747;DHT22;57018;50.278;19.134;2023-10-08T13:14:14;11.20;55.80
69747;DHT22;57018;50.278;19.134;2023-10-08T13:16:44;11.20;55.40
69747;DHT22;57018;50.278;19.134;2023-10-08T13:19:14;11.30;55.10
69747;DHT22;57018;50.278;19.134;2023-10-08T13:21:44;11.30;56.10
69747;DHT22;57018;50.278;19.134;2023-10-08T13:24:14;11.30;55.70
69747;DHT22;57018;50.278;19.134;2023-10-08T13:26:45;11.30;55.90
69747;DHT22;57018;50.278;19.134;2023-10-08T13:29:16;11.30;57.40
69747;DHT22;57018;50.278;19.134;2023-10-08T13:31:47;11.40;57.70
69747;DHT22;57018;50.278;19.134;2023-10-08T13:34:16;11.50;55.80
69747;DHT22;57018;50.278;19.134;2023-10-08T13:36:46;11.50;53.50
69747;DHT22;57018;50.278;19.134;2023-10-08T13:39:17;11.30;54.70
69747;DHT22;57018;50.278;19.134;2023-10-08T13:41:47;11.40;55.30
69747;DHT22;57018;50.278;19.134;2023-10-08T13:44:17;11.30;55.30
69747;DHT22;57018;50.278;19.134;2023-10-08T13:46:57;11.30;56.10
69747;DHT22;57018;50.278;19.134;2023-10-08T13:49:28;11.30;56.60
69747;DHT22;57018;50.278;19.134;2023-10-08T13:51:59;11.40;55.70
69747;DHT22;57018;50.278;19.134;2023-10-08T13:54:28;11.40;54.60
69747;DHT22;57018;50.278;19.134;2023-10-08T13:57:01;11.30;54.30
69747;DHT22;57018;50.278;19.134;2023-10-08T13:59:30;11.30;54.10
69747;DHT22;57018;50.278;19.134;2023-10-08T14:02:00;11.40;54.00
69747;DHT22;57018;50.278;19.134;2023-10-08T14:04:42;11.40;54.20
69747;DHT22;57018;50.278;19.134;2023-10-08T14:07:13;11.30;56.10
69747;DHT22;57018;50.278;19.134;2023-10-08T14:09:45;11.30;56.60
69747;DHT22;57018;50.278;19.134;2023-10-08T14:12:15;11.30;53.50
69747;DHT22;57018;50.278;19.134;2023-10-08T14:14:44;11.30;51.70
69747;DHT22;57018;50.278;19.134;2023-10-08T14:17:15;11.30;52.00
69747;DHT22;57018;50.278;19.134;2023-10-08T14:20:06;11.30;52.00
69747;DHT22;57018;50.278;19.134;2023-10-08T14:22:41;11.40;52.10
69747;DHT22;57018;50.278;19.134;2023-10-08T14:25:12;11.30;52.30
69747;DHT22;57018;50.278;19.134;2023-10-08T14:27:43;11.30;52.40
69747;DHT22;57018;50.278;19.134;2023-10-08T14:30:20;11.20;51.70
69747;DHT22;57018;50.278;19.134;2023-10-08T14:32:52;11.10;50.90
69747;DHT22;57018;50.278;19.134;2023-10-08T14:35:25;11.10;52.00
69747;DHT22;57018;50.278;19.134;2023-10-08T14:38:12;11.00;51.50
69747;DHT22;57018;50.278;19.134;2023-10-08T14:41:00;11.00;52.10
69747;DHT22;57018;50.278;19.134;2023-10-08T14:43:46;10.90;52.40
69747;DHT22;57018;50.278;19.134;2023-10-08T14:46:16;10.80;53.30
69747;DHT22;57018;50.278;19.134;2023-10-08T14:48:47;10.70;54.30
69747;DHT22;57018;50.278;19.134;2023-10-08T14:51:17;10.80;55.30
69747;DHT22;57018;50.278;19.134;2023-10-08T14:53:47;10.70;55.40
69747;DHT22;57018;50.278;19.134;2023-10-08T14:56:17;10.70;56.20
69747;DHT22;57018;50.278;19.134;2023-10-08T14:58:48;10.60;56.40
69747;DHT22;57018;50.278;19.134;2023-10-08T15:01:17;10.70;56.80
69747;DHT22;57018;50.278;19.134;2023-10-08T15:03:48;10.70;57.00
69747;DHT22;57018;50.278;19.134;2023-10-08T15:06:18;10.60;57.90
69747;DHT22;57018;50.278;19.134;2023-10-08T15:08:49;10.50;58.20
69747;DHT22;57018;50.278;19.134;2023-10-08T15:11:20;10.40;59.00
69747;DHT22;57018;50.278;19.134;2023-10-08T15:13:50;10.50;58.80
69747;DHT22;57018;50.278;19.134;2023-10-08T15:16:22;10.50;59.60
69747;DHT22;57018;50.278;19.134;2023-10-08T15:18:52;10.40;59.00
69747;DHT22;57018;50.278;19.134;2023-10-08T15:21:22;10.60;59.30
69747;DHT22;57018;50.278;19.134;2023-10-08T15:23:52;10.50;59.70
69747;DHT22;57018;50.278;19.134;2023-10-08T15:26:22;10.40;60.80
69747;DHT22;57018;50.278;19.134;2023-10-08T15:28:51;10.40;60.60
69747;DHT22;57018;50.278;19.134;2023-10-08T15:31:21;10.30;61.10
69747;DHT22;57018;50.278;19.134;2023-10-08T15:33:51;10.30;62.30
69747;DHT22;57018;50.278;19.134;2023-10-08T15:36:22;10.10;62.40
69747;DHT22;57018;50.278;19.134;2023-10-08T15:38:52;10.20;62.90
69747;DHT22;57018;50.278;19.134;2023-10-08T15:41:22;10.10;63.50
69747;DHT22;57018;50.278;19.134;2023-10-08T15:43:52;10.10;63.90
69747;DHT22;57018;50.278;19.134;2023-10-08T15:46:26;9.90;64.80
69747;DHT22;57018;50.278;19.134;2023-10-08T15:48:55;9.80;65.40
69747;DHT22;57018;50.278;19.134;2023-10-08T15:51:25;9.70;66.80
69747;DHT22;57018;50.278;19.134;2023-10-08T15:53:57;9.80;67.60
69747;DHT22;57018;50.278;19.134;2023-10-08T15:56:28;9.80;67.70
69747;DHT22;57018;50.278;19.134;2023-10-08T15:58:58;9.80;68.70